KRIL/RIL METAR and TAF weather

Enter ICAO airport designator
Station Type Date Time Source
KRIL METAR 2019/06/18 13:53 UTC NOAA

KRIL 181353Z AUTO 00000KT 10SM OVC075 13/12 A3017 RMK AO2 SLP166 T01330117 TSNO


Station Type Date Time Source
KRIL Decoded METAR 2019/06/18 13:53 UTC NOAA

RIFLE GARFIELD COUNTY RGNL, CO, United States (KRIL) 39-31N 107-44W 1678M
Jun 18, 2019 - 09:53 AM EDT / 2019.06.18 1353 UTC
Wind: Calm:0
Visibility: 10 mile(s):0
Sky conditions: overcast
Temperature: 55.9 F (13.3 C)
Dew Point: 53.1 F (11.7 C)
Relative Humidity: 90%
Pressure (altimeter): 30.17 in. Hg (1021 hPa)
ob: KRIL 181353Z AUTO 00000KT 10SM OVC075 13/12 A3017 RMK AO2 SLP166 T01330117 TSNO
cycle: 14

Station Type Date Time Source
KRIL TAF 2019/06/18 15:52 UTC NOAA

TAF
AMD KRIL 181451Z 1815/1912 VRB03KT P6SM VCSH SCT060 BKN100
TEMPO 1815/1817 -RA BKN060 OVC080
FM181700 VRB03KT P6SM VCTS FEW040CB SCT090
TEMPO 1819/1823 -TSRA
FM182300 28006KT P6SM VCSH FEW060 SCT100
FM190500 VRB03KT P6SM FEW060 SCT100

Example: see airport list